Time;durP1;ratioP1;P1;durP2;ratioP2;P2;SDS_P1;SDS_P2;PMS_P1;PMS_P2;Temp;Humidity;BMP_temperature;BMP_pressure;BME280_temperature;BME280_humidity;BME280_pressure;Samples;Min_cycle;Max_cycle;Signal;HPM_P1;HPM_P2
2021/08/28 00:00:23;;;;;;;4.15;2.47;;;20.50;83.40;;;;;;4193348;28;20040;-61
2021/08/28 00:02:45;;;;;;;4.22;2.72;;;20.40;83.50;;;;;;4194512;28;20048;-59
2021/08/28 00:05:09;;;;;;;5.65;2.33;;;20.40;83.20;;;;;;4198741;28;20048;-60
2021/08/28 00:07:31;;;;;;;5.03;2.60;;;20.40;83.60;;;;;;4193852;28;20510;-59
2021/08/28 00:09:54;;;;;;;4.28;2.17;;;20.50;83.30;;;;;;4209958;28;20040;-60
2021/08/28 00:12:15;;;;;;;5.22;2.40;;;20.40;83.50;;;;;;4209917;28;20099;-60
2021/08/28 00:14:37;;;;;;;6.20;2.35;;;20.40;83.30;;;;;;4209414;28;20172;-60
2021/08/28 00:17:00;;;;;;;3.80;2.80;;;20.40;83.70;;;;;;4209619;28;20569;-60
2021/08/28 00:19:22;;;;;;;4.32;2.08;;;20.40;83.30;;;;;;4193668;28;20094;-60
2021/08/28 00:21:46;;;;;;;3.88;2.08;;;20.40;83.50;;;;;;4192492;28;20052;-60
2021/08/28 00:24:08;;;;;;;4.35;2.20;;;20.40;83.50;;;;;;4192502;28;20056;-60
2021/08/28 00:26:31;;;;;;;4.38;2.20;;;20.40;83.50;;;;;;4192390;28;20436;-59
2021/08/28 00:28:53;;;;;;;2.30;2.10;;;20.40;83.70;;;;;;4193216;28;20127;-60
2021/08/28 00:31:15;;;;;;;4.50;2.60;;;20.40;83.80;;;;;;4192603;28;20468;-60
2021/08/28 00:33:36;;;;;;;3.22;2.35;;;20.40;83.50;;;;;;4201111;28;20056;-60
2021/08/28 00:35:58;;;;;;;4.40;2.08;;;20.40;83.50;;;;;;4209107;28;20078;-60
2021/08/28 00:38:22;;;;;;;3.40;1.90;;;20.40;83.30;;;;;;4209422;28;20059;-60
2021/08/28 00:40:44;;;;;;;3.60;1.95;;;20.40;83.50;;;;;;4209436;28;20047;-59
2021/08/28 00:43:07;;;;;;;2.70;1.90;;;20.40;84.60;;;;;;4209116;28;20505;-60
2021/08/28 00:45:31;;;;;;;5.60;2.00;;;20.40;83.60;;;;;;4207798;28;20512;-61
2021/08/28 00:47:56;;;;;;;2.83;1.52;;;20.40;83.30;;;;;;4207423;28;20041;-60
2021/08/28 00:50:18;;;;;;;3.70;2.15;;;20.40;83.50;;;;;;4209402;28;22973;-60
2021/08/28 00:52:40;;;;;;;3.05;2.10;;;20.40;83.60;;;;;;4209303;28;20126;-60
2021/08/28 00:55:03;;;;;;;2.88;2.05;;;20.40;83.20;;;;;;4207527;28;20048;-60
2021/08/28 00:57:25;;;;;;;5.22;2.47;;;20.40;83.50;;;;;;4209041;28;20494;-60
2021/08/28 00:59:48;;;;;;;4.63;2.25;;;20.40;83.20;;;;;;4178571;28;20118;-60
2021/08/28 01:02:11;;;;;;;2.15;1.92;;;20.40;83.30;;;;;;4208782;28;20414;-60
2021/08/28 01:04:46;;;;;;;2.80;2.60;;;20.40;83.10;;;;;;4208898;28;20051;-60
2021/08/28 01:07:17;;;;;;;5.13;2.72;;;20.40;83.30;;;;;;4207413;28;20206;-60
2021/08/28 01:10:07;;;;;;;4.97;2.65;;;20.40;83.20;;;;;;4208443;28;20048;-60
2021/08/28 01:12:54;;;;;;;3.05;2.30;;;20.40;83.10;;;;;;4199373;28;20040;-60
2021/08/28 01:15:22;;;;;;;4.20;2.50;;;20.40;83.20;;;;;;4200164;28;20517;-60
2021/08/28 01:17:48;;;;;;;5.47;2.88;;;20.40;83.20;;;;;;4205148;28;20501;-60
2021/08/28 01:20:19;;;;;;;4.78;2.55;;;20.40;83.30;;;;;;4207720;28;20438;-60
2021/08/28 01:23:21;;;;;;;3.28;2.60;;;20.40;83.30;;;;;;4162694;28;20183;-59
2021/08/28 01:25:54;;;;;;;5.05;2.35;;;20.30;83.00;;;;;;4141434;28;20058;-60
2021/08/28 01:28:22;;;;;;;4.50;2.45;;;20.30;83.00;;;;;;4162211;28;20068;-60
2021/08/28 01:30:45;;;;;;;2.60;1.70;;;20.30;82.90;;;;;;4190388;28;20045;-60
2021/08/28 01:33:08;;;;;;;2.63;2.28;;;20.30;82.90;;;;;;4195423;28;20047;-59
2021/08/28 01:35:32;;;;;;;3.90;1.90;;;20.30;83.00;;;;;;4205422;28;20044;-60
2021/08/28 01:37:55;;;;;;;3.85;2.13;;;20.30;82.90;;;;;;4206932;28;20044;-60
2021/08/28 01:40:39;;;;;;;1.85;1.52;;;20.30;82.90;;;;;;4206022;28;20062;-60
2021/08/28 01:43:01;;;;;;;4.80;1.90;;;20.30;82.80;;;;;;4206960;28;20047;-60
2021/08/28 01:45:25;;;;;;;5.97;2.25;;;20.30;83.00;;;;;;4206996;28;20051;-59
2021/08/28 01:47:55;;;;;;;1.88;1.65;;;20.30;83.80;;;;;;4200634;28;20044;-61
2021/08/28 01:50:20;;;;;;;2.15;1.75;;;20.30;82.90;;;;;;4190052;28;20051;-60
2021/08/28 01:52:43;;;;;;;3.45;1.98;;;20.30;83.00;;;;;;4192021;28;20593;-61
2021/08/28 01:55:06;;;;;;;3.10;1.60;;;20.30;82.90;;;;;;4190436;28;20059;-60
2021/08/28 01:57:37;;;;;;;3.72;2.28;;;20.30;83.10;;;;;;4189950;28;20480;-60
2021/08/28 02:00:24;;;;;;;2.83;1.88;;;20.30;83.20;;;;;;4189485;28;20055;-60
2021/08/28 02:02:46;;;;;;;4.03;1.95;;;20.30;83.30;;;;;;4194719;28;20093;-60
2021/08/28 02:05:13;;;;;;;3.78;1.95;;;20.30;83.30;;;;;;4208000;27;20068;-60
2021/08/28 02:07:48;;;;;;;3.83;1.92;;;20.30;83.40;;;;;;4206129;27;20417;-61
2021/08/28 02:10:15;;;;;;;5.70;2.20;;;20.30;83.50;;;;;;4208042;27;20047;-60
2021/08/28 02:12:41;;;;;;;3.22;2.22;;;20.30;83.50;;;;;;4204070;27;20048;-61
2021/08/28 02:15:10;;;;;;;4.05;2.03;;;20.30;83.50;;;;;;4196997;28;20431;-58
2021/08/28 02:17:36;;;;;;;3.40;2.40;;;20.30;83.80;;;;;;4193508;28;20048;-59
2021/08/28 02:20:03;;;;;;;5.57;2.40;;;20.30;84.00;;;;;;4206761;27;20051;-60
2021/08/28 02:22:43;;;;;;;4.75;2.50;;;20.30;84.00;;;;;;4189545;28;20090;-59
2021/08/28 02:25:28;;;;;;;4.80;2.70;;;20.30;83.90;;;;;;4191090;28;20049;-59
2021/08/28 02:28:00;;;;;;;2.58;2.38;;;20.30;83.60;;;;;;4189197;28;20486;-59
2021/08/28 02:30:22;;;;;;;4.47;2.70;;;20.30;83.80;;;;;;4189827;28;20063;-58
2021/08/28 02:33:12;;;;;;;5.20;3.08;;;20.30;83.80;;;;;;4207062;27;20109;-60
2021/08/28 02:35:46;;;;;;;5.57;3.13;;;20.30;83.90;;;;;;4206085;27;20130;-59
2021/08/28 02:38:11;;;;;;;5.05;2.63;;;20.30;83.50;;;;;;4206075;28;20506;-59
2021/08/28 02:40:36;;;;;;;6.32;3.33;;;20.30;83.50;;;;;;4209707;27;20044;-58
2021/08/28 02:42:59;;;;;;;4.85;2.40;;;20.30;83.50;;;;;;4209698;27;20126;-59
2021/08/28 02:45:26;;;;;;;5.43;3.35;;;20.30;83.50;;;;;;4209511;27;20052;-59
2021/08/28 02:47:55;;;;;;;6.72;3.10;;;20.30;83.70;;;;;;4201283;28;20049;-60
2021/08/28 02:50:19;;;;;;;6.65;3.08;;;20.20;83.70;;;;;;4193054;28;20468;-58
2021/08/28 02:52:48;;;;;;;4.45;3.08;;;20.30;83.70;;;;;;4193400;28;20620;-59
2021/08/28 02:55:13;;;;;;;5.10;3.08;;;20.30;84.00;;;;;;4192303;28;20495;-59
2021/08/28 02:57:38;;;;;;;3.47;3.08;;;20.30;84.10;;;;;;4194176;28;20497;-59
2021/08/28 03:00:00;;;;;;;4.68;3.13;;;20.30;84.30;;;;;;4194259;28;20491;-59
2021/08/28 03:02:24;;;;;;;5.82;2.97;;;20.30;84.40;;;;;;4196379;27;20508;-59
2021/08/28 03:04:46;;;;;;;3.35;3.05;;;20.30;84.40;;;;;;4209246;27;20048;-59
2021/08/28 03:07:08;;;;;;;3.38;3.00;;;20.20;84.50;;;;;;4208974;27;20056;-59
2021/08/28 03:09:32;;;;;;;6.65;3.40;;;20.30;84.70;;;;;;4209442;27;20135;-59
2021/08/28 03:11:58;;;;;;;4.93;2.85;;;20.30;85.20;;;;;;4206726;27;20056;-58
2021/08/28 03:14:20;;;;;;;3.95;2.95;;;20.30;85.00;;;;;;4192564;28;20110;-60
2021/08/28 03:16:47;;;;;;;6.00;3.13;;;20.20;85.00;;;;;;4192834;28;20098;-59
2021/08/28 03:19:32;;;;;;;2.92;2.67;;;20.20;85.00;;;;;;4173462;28;20053;-59
2021/08/28 03:21:57;;;;;;;5.97;2.80;;;20.20;85.50;;;;;;4173528;28;20095;-59
2021/08/28 03:24:23;;;;;;;3.20;2.78;;;20.20;85.50;;;;;;4160783;28;20067;-59
2021/08/28 03:27:00;;;;;;;4.47;3.25;;;20.20;85.00;;;;;;4169899;28;20507;-61
2021/08/28 03:29:23;;;;;;;9.35;3.20;;;20.20;85.70;;;;;;4179481;28;20703;-59
2021/08/28 03:31:46;;;;;;;5.30;3.33;;;20.20;85.80;;;;;;4191712;28;20045;-60
2021/08/28 03:34:09;;;;;;;4.55;3.10;;;20.20;85.60;;;;;;4167679;28;20489;-60
2021/08/28 03:36:32;;;;;;;5.13;3.30;;;20.20;85.80;;;;;;4172970;28;20053;-59
2021/08/28 03:38:54;;;;;;;7.05;3.65;;;20.20;85.60;;;;;;4175880;28;20053;-60
2021/08/28 03:41:18;;;;;;;4.20;2.97;;;20.20;85.60;;;;;;4189522;28;20049;-60
2021/08/28 03:43:44;;;;;;;6.80;2.90;;;20.20;85.90;;;;;;4189887;28;20102;-60
2021/08/28 03:46:07;;;;;;;4.97;2.67;;;20.20;85.80;;;;;;4189752;28;20106;-57
2021/08/28 03:48:31;;;;;;;4.63;2.80;;;20.20;85.40;;;;;;4207436;27;20081;-59
2021/08/28 03:50:54;;;;;;;4.85;2.80;;;20.20;87.20;;;;;;4207914;27;20070;-59
2021/08/28 03:53:16;;;;;;;9.32;3.53;;;20.20;86.30;;;;;;4208525;27;20134;-59
2021/08/28 03:55:39;;;;;;;6.57;3.17;;;20.20;86.50;;;;;;4208680;27;20055;-58
2021/08/28 03:58:01;;;;;;;5.60;3.28;;;20.20;86.60;;;;;;4208940;27;20137;-60
2021/08/28 04:00:28;;;;;;;6.30;3.15;;;20.20;86.60;;;;;;4208472;27;20561;-59
2021/08/28 04:02:52;;;;;;;7.15;3.20;;;20.20;86.80;;;;;;4205406;28;20044;-60
2021/08/28 04:05:18;;;;;;;5.32;2.90;;;20.20;86.90;;;;;;4208400;27;20059;-60
2021/08/28 04:07:41;;;;;;;5.32;2.88;;;20.20;86.20;;;;;;4198733;27;20158;-59
2021/08/28 04:10:05;;;;;;;5.13;3.15;;;20.20;86.60;;;;;;4191212;28;20143;-60
2021/08/28 04:12:28;;;;;;;6.15;3.50;;;20.20;86.80;;;;;;4191892;28;20414;-59
2021/08/28 04:14:55;;;;;;;6.10;3.17;;;20.10;86.50;;;;;;4191384;28;20048;-60
2021/08/28 04:17:21;;;;;;;3.47;3.17;;;20.20;86.80;;;;;;4198208;27;20047;-59
2021/08/28 04:19:43;;;;;;;5.60;2.90;;;20.20;86.50;;;;;;4208502;27;20044;-59
2021/08/28 04:22:16;;;;;;;8.90;3.88;;;20.10;86.80;;;;;;4208103;28;20044;-59
2021/08/28 04:25:16;;;;;;;4.50;2.75;;;20.20;86.60;;;;;;4209289;27;20044;-59
2021/08/28 04:27:59;;;;;;;5.22;3.30;;;20.20;86.30;;;;;;4190151;28;20044;-59
2021/08/28 04:30:27;;;;;;;4.10;3.25;;;20.10;86.70;;;;;;4191357;28;20098;-59
2021/08/28 04:32:51;;;;;;;7.00;2.92;;;20.20;86.70;;;;;;4190709;28;20075;-58
2021/08/28 04:35:14;;;;;;;5.80;2.90;;;20.20;86.60;;;;;;4191012;28;20067;-59
2021/08/28 04:37:38;;;;;;;3.70;2.65;;;20.20;86.30;;;;;;4191561;28;20099;-59
2021/08/28 04:40:00;;;;;;;4.70;2.95;;;20.10;86.20;;;;;;4191052;28;20056;-59
2021/08/28 04:42:22;;;;;;;3.88;2.80;;;20.10;86.70;;;;;;4191212;28;20045;-59
2021/08/28 04:44:45;;;;;;;6.20;2.90;;;20.10;86.20;;;;;;4192465;28;20048;-59
2021/08/28 04:47:07;;;;;;;5.35;3.35;;;20.10;86.30;;;;;;4190625;28;20503;-60
2021/08/28 04:49:30;;;;;;;4.95;3.33;;;20.10;86.30;;;;;;4191563;28;20067;-59
2021/08/28 04:52:06;;;;;;;7.07;3.17;;;20.10;86.20;;;;;;4190711;28;20048;-59
2021/08/28 04:54:31;;;;;;;4.60;2.47;;;20.10;85.90;;;;;;4190683;27;20048;-59
2021/08/28 04:56:53;;;;;;;3.92;2.67;;;20.10;86.20;;;;;;4191083;28;20056;-59
2021/08/28 04:59:15;;;;;;;4.43;3.05;;;20.10;86.70;;;;;;4190667;28;20040;-60
2021/08/28 05:01:37;;;;;;;3.95;2.58;;;20.10;86.20;;;;;;4178658;28;20525;-60
2021/08/28 05:04:22;;;;;;;4.28;2.67;;;20.10;86.20;;;;;;4189649;28;20517;-60
2021/08/28 05:06:46;;;;;;;4.10;2.70;;;20.10;86.00;;;;;;4190942;28;20068;-59
2021/08/28 05:09:14;;;;;;;5.97;2.95;;;20.10;86.40;;;;;;4191584;28;20051;-60
2021/08/28 05:11:36;;;;;;;5.82;2.85;;;20.10;86.10;;;;;;4190931;28;20124;-59
2021/08/28 05:13:58;;;;;;;5.35;2.75;;;20.10;86.30;;;;;;4190753;28;20550;-60
2021/08/28 05:16:21;;;;;;;4.30;2.80;;;20.10;86.20;;;;;;4188686;28;20044;-60
2021/08/28 05:18:43;;;;;;;3.13;2.53;;;20.10;86.00;;;;;;4173527;28;20053;-60
2021/08/28 05:21:08;;;;;;;5.68;3.00;;;20.20;86.20;;;;;;4174494;28;20080;-60
2021/08/28 05:23:51;;;;;;;8.38;3.00;;;20.20;86.00;;;;;;4190136;28;20752;-60
2021/08/28 05:26:33;;;;;;;5.70;2.70;;;20.20;86.30;;;;;;4190268;28;20607;-63
2021/08/28 05:28:56;;;;;;;6.53;3.53;;;20.20;86.20;;;;;;4175216;28;20056;-61
2021/08/28 05:31:17;;;;;;;7.75;3.17;;;20.20;86.30;;;;;;4176580;28;20048;-61
2021/08/28 05:33:40;;;;;;;5.63;3.10;;;20.20;86.40;;;;;;4174193;28;20045;-60
2021/08/28 05:36:08;;;;;;;9.30;3.35;;;20.20;86.40;;;;;;4178802;28;20055;-61
2021/08/28 05:39:04;;;;;;;5.93;3.05;;;20.20;86.40;;;;;;4148566;28;20045;-61
2021/08/28 05:41:26;;;;;;;6.35;3.05;;;20.20;86.40;;;;;;4182404;28;20055;-61
2021/08/28 05:43:48;;;;;;;8.65;3.03;;;20.20;86.50;;;;;;4176508;28;20371;-61
2021/08/28 05:46:29;;;;;;;2.88;2.50;;;20.20;86.60;;;;;;4169670;28;20553;-60
2021/08/28 05:48:58;;;;;;;5.88;3.10;;;20.20;86.50;;;;;;4173927;28;20283;-61
2021/08/28 05:51:38;;;;;;;4.90;2.93;;;20.20;86.70;;;;;;4158189;28;20458;-61
2021/08/28 05:54:00;;;;;;;5.60;3.25;;;20.20;86.80;;;;;;4157293;28;20535;-60
2021/08/28 05:56:24;;;;;;;6.45;3.33;;;20.20;86.50;;;;;;4185638;28;20563;-61
2021/08/28 05:58:46;;;;;;;9.57;2.97;;;20.20;86.50;;;;;;4173508;28;20053;-59
2021/08/28 06:01:09;;;;;;;7.63;3.38;;;20.20;86.50;;;;;;4173563;28;20484;-61
2021/08/28 06:03:31;;;;;;;6.93;3.10;;;20.10;86.40;;;;;;4173720;28;20037;-61
2021/08/28 06:06:00;;;;;;;5.35;3.03;;;20.10;86.20;;;;;;4173204;28;20049;-60
2021/08/28 06:08:45;;;;;;;6.45;2.67;;;20.20;86.30;;;;;;4174661;28;20053;-60
2021/08/28 06:11:46;;;;;;;4.55;2.67;;;20.10;86.20;;;;;;4171639;28;20076;-61
2021/08/28 06:14:34;;;;;;;4.60;2.72;;;20.10;86.50;;;;;;4155113;28;20097;-60
2021/08/28 06:17:00;;;;;;;5.55;2.88;;;20.10;86.50;;;;;;4184608;28;20056;-61
2021/08/28 06:19:30;;;;;;;4.03;2.45;;;20.10;86.30;;;;;;4173304;28;20045;-61
2021/08/28 06:21:52;;;;;;;4.88;3.05;;;20.10;86.10;;;;;;4173173;28;20051;-60
2021/08/28 06:24:15;;;;;;;7.05;2.92;;;20.10;85.50;;;;;;4173268;28;20037;-61
2021/08/28 06:26:56;;;;;;;7.30;2.97;;;20.10;85.10;;;;;;4158877;28;20045;-60
2021/08/28 06:29:18;;;;;;;3.45;2.75;;;20.10;84.50;;;;;;4172804;28;20057;-61
2021/08/28 06:31:44;;;;;;;3.03;2.63;;;20.10;83.60;;;;;;4172867;28;20049;-61
2021/08/28 06:34:06;;;;;;;4.90;2.40;;;20.10;83.10;;;;;;4173148;28;20041;-62
2021/08/28 06:36:31;;;;;;;4.22;2.85;;;20.10;82.90;;;;;;4172911;28;20135;-61
2021/08/28 06:38:56;;;;;;;3.92;2.60;;;20.10;82.70;;;;;;4174894;28;20047;-61
2021/08/28 06:41:36;;;;;;;2.88;2.13;;;20.10;82.30;;;;;;4174125;28;20411;-62
2021/08/28 06:44:19;;;;;;;3.35;2.75;;;20.10;82.50;;;;;;4161323;28;20511;-62
2021/08/28 06:47:04;;;;;;;3.55;2.40;;;20.10;82.50;;;;;;4173763;28;20056;-61
2021/08/28 06:49:52;;;;;;;6.05;3.45;;;20.10;82.90;;;;;;4184745;28;20190;-62
2021/08/28 06:52:33;;;;;;;2.95;2.53;;;20.10;82.80;;;;;;4190383;28;20056;-62
2021/08/28 06:55:21;;;;;;;5.13;2.85;;;20.10;83.40;;;;;;4191270;28;20045;-64
2021/08/28 06:58:02;;;;;;;4.03;3.05;;;20.00;83.80;;;;;;4196896;28;20075;-64
2021/08/28 07:00:51;;;;;;;3.55;2.97;;;20.10;84.40;;;;;;4200865;27;20129;-63
2021/08/28 07:03:32;;;;;;;3.88;2.97;;;20.10;84.60;;;;;;4206119;28;20048;-62
2021/08/28 07:05:56;;;;;;;4.15;2.97;;;20.10;85.00;;;;;;4198643;28;20048;-63
2021/08/28 07:08:19;;;;;;;5.85;2.90;;;20.10;85.00;;;;;;4189875;28;20052;-61
2021/08/28 07:10:43;;;;;;;8.27;3.00;;;20.10;85.10;;;;;;4201652;27;20071;-62
2021/08/28 07:13:05;;;;;;;4.05;2.17;;;20.10;85.00;;;;;;4186643;28;20052;-62
2021/08/28 07:15:27;;;;;;;4.47;1.92;;;20.10;85.00;;;;;;4188947;28;20045;-62
2021/08/28 07:17:51;;;;;;;4.00;2.72;;;20.10;85.10;;;;;;4172634;28;20064;-61
2021/08/28 07:20:14;;;;;;;4.22;2.58;;;20.10;85.00;;;;;;4174209;28;20407;-62
2021/08/28 07:22:36;;;;;;;4.07;2.40;;;20.10;84.80;;;;;;4185285;28;20044;-62
2021/08/28 07:25:02;;;;;;;6.22;3.08;;;20.10;84.70;;;;;;4182688;28;20517;-62
2021/08/28 07:27:25;;;;;;;4.40;2.88;;;20.10;84.60;;;;;;4191837;28;20063;-62
2021/08/28 07:29:53;;;;;;;5.85;2.67;;;20.10;84.60;;;;;;4177210;28;20128;-62
2021/08/28 07:32:16;;;;;;;5.25;2.72;;;20.10;84.60;;;;;;4175801;28;20130;-63
2021/08/28 07:34:39;;;;;;;6.30;2.60;;;20.10;84.40;;;;;;4175561;28;20052;-61
2021/08/28 07:37:02;;;;;;;5.72;2.70;;;20.10;84.40;;;;;;4175967;28;20056;-61
2021/08/28 07:39:24;;;;;;;8.13;3.00;;;20.10;84.40;;;;;;4193474;27;20047;-61
2021/08/28 07:41:46;;;;;;;4.45;2.47;;;20.20;84.80;;;;;;4208530;28;20055;-61
2021/08/28 07:44:08;;;;;;;4.90;2.88;;;20.20;84.80;;;;;;4193477;28;20048;-62
2021/08/28 07:46:30;;;;;;;5.20;2.42;;;20.20;85.10;;;;;;4191461;28;20060;-61
2021/08/28 07:49:18;;;;;;;5.40;2.60;;;20.30;85.20;;;;;;4193277;28;20079;-60
2021/08/28 07:51:42;;;;;;;3.85;2.65;;;20.30;85.20;;;;;;4197251;27;20113;-61
2021/08/28 07:54:06;;;;;;;6.35;2.42;;;20.40;84.40;;;;;;4205619;28;20064;-63
2021/08/28 07:56:28;;;;;;;7.88;2.53;;;20.50;84.00;;;;;;4191765;28;20144;-61
2021/08/28 07:58:50;;;;;;;4.22;2.25;;;20.50;83.40;;;;;;4193316;27;20052;-62
2021/08/28 08:01:13;;;;;;;4.22;1.92;;;20.40;82.10;;;;;;4208523;27;20493;-62
2021/08/28 08:03:40;;;;;;;5.20;2.40;;;20.50;81.40;;;;;;4210370;27;20059;-62
2021/08/28 08:06:28;;;;;;;3.72;2.20;;;20.40;81.40;;;;;;4187131;28;20048;-61
2021/08/28 08:09:30;;;;;;;4.85;2.00;;;20.40;80.90;;;;;;4191032;28;20051;-61
2021/08/28 08:11:58;;;;;;;6.45;2.30;;;20.40;81.00;;;;;;4187504;28;20049;-61
2021/08/28 08:14:41;;;;;;;3.70;2.45;;;20.40;81.60;;;;;;4176331;28;20077;-62
2021/08/28 08:17:22;;;;;;;4.57;2.20;;;20.40;81.50;;;;;;4176445;28;20056;-63
2021/08/28 08:19:44;;;;;;;2.05;1.70;;;20.40;80.60;;;;;;4179188;28;20044;-61
2021/08/28 08:22:24;;;;;;;3.33;1.83;;;20.40;80.60;;;;;;4171532;28;20608;-62
2021/08/28 08:25:08;;;;;;;3.00;1.75;;;20.40;81.10;;;;;;4174948;28;20045;-61
2021/08/28 08:27:56;;;;;;;2.75;1.80;;;20.40;80.60;;;;;;4186356;28;20064;-62
2021/08/28 08:30:28;;;;;;;3.05;2.55;;;20.40;79.90;;;;;;4187611;28;20056;-64
2021/08/28 08:33:03;;;;;;;3.55;2.33;;;20.40;80.10;;;;;;4174513;28;20095;-63
2021/08/28 08:35:26;;;;;;;4.10;1.70;;;20.40;80.50;;;;;;4196232;28;20048;-64
2021/08/28 08:37:48;;;;;;;3.80;1.90;;;20.40;80.90;;;;;;4208018;28;20518;-64
2021/08/28 08:40:13;;;;;;;4.13;1.85;;;20.40;81.50;;;;;;4207689;28;20074;-63
2021/08/28 08:42:40;;;;;;;2.33;1.70;;;20.50;82.00;;;;;;4207999;28;20090;-63
2021/08/28 08:45:04;;;;;;;3.20;1.50;;;20.50;81.60;;;;;;4206683;28;20056;-64
2021/08/28 08:47:27;;;;;;;2.90;1.60;;;20.60;80.00;;;;;;4200529;28;20462;-63
2021/08/28 08:49:51;;;;;;;3.70;1.23;;;20.60;80.20;;;;;;4207951;28;20052;-63
2021/08/28 08:52:21;;;;;;;4.22;1.60;;;20.70;80.00;;;;;;4207450;28;20063;-63
2021/08/28 08:55:03;;;;;;;3.38;1.67;;;20.70;78.40;;;;;;4208561;28;20167;-63
2021/08/28 08:57:27;;;;;;;4.63;1.60;;;20.80;78.20;;;;;;4207924;28;20134;-63
2021/08/28 08:59:50;;;;;;;4.00;1.63;;;20.80;78.20;;;;;;4184938;28;20094;-63
2021/08/28 09:02:12;;;;;;;3.30;1.90;;;20.80;78.80;;;;;;4190688;28;20055;-63
2021/08/28 09:05:00;;;;;;;1.95;1.40;;;20.80;78.90;;;;;;4185243;28;20135;-63
2021/08/28 09:07:23;;;;;;;2.88;1.63;;;20.90;78.30;;;;;;4190749;28;20060;-64
2021/08/28 09:09:45;;;;;;;2.85;1.52;;;20.90;77.50;;;;;;4191831;28;20071;-62
2021/08/28 09:12:12;;;;;;;2.20;1.30;;;20.90;77.60;;;;;;4202333;28;20055;-63
2021/08/28 09:14:36;;;;;;;2.80;1.80;;;20.90;78.20;;;;;;4208941;28;20060;-63
2021/08/28 09:17:13;;;;;;;1.88;1.38;;;20.90;78.60;;;;;;4208633;28;20055;-63
2021/08/28 09:19:39;;;;;;;2.65;1.30;;;20.80;76.80;;;;;;4208436;28;20044;-63
2021/08/28 09:22:01;;;;;;;2.45;1.55;;;20.80;76.30;;;;;;4208531;28;20101;-63
2021/08/28 09:24:23;;;;;;;4.68;1.40;;;20.80;76.80;;;;;;4208599;28;20063;-63
2021/08/28 09:26:46;;;;;;;3.00;1.65;;;20.80;77.30;;;;;;4208711;28;20554;-63
2021/08/28 09:29:11;;;;;;;2.25;1.33;;;20.70;77.20;;;;;;4208458;28;20437;-63
2021/08/28 09:31:43;;;;;;;2.03;1.55;;;20.70;77.20;;;;;;4208465;28;20044;-63
2021/08/28 09:34:23;;;;;;;1.85;1.33;;;20.70;77.50;;;;;;4207960;28;20472;-63
2021/08/28 09:36:45;;;;;;;2.45;1.25;;;20.60;78.10;;;;;;4208508;28;20142;-63
2021/08/28 09:39:11;;;;;;;3.85;1.92;;;20.60;78.30;;;;;;4189743;28;20062;-63
2021/08/28 09:41:34;;;;;;;4.25;1.40;;;20.60;78.40;;;;;;4203499;28;20048;-63
2021/08/28 09:44:04;;;;;;;2.65;1.42;;;20.60;78.50;;;;;;4208095;28;20051;-63
2021/08/28 09:46:26;;;;;;;4.10;1.60;;;20.60;78.40;;;;;;4208391;28;20071;-63
2021/08/28 09:49:00;;;;;;;2.78;1.40;;;20.60;78.70;;;;;;4207642;28;20036;-63
2021/08/28 09:51:21;;;;;;;2.30;1.30;;;20.60;79.10;;;;;;4208426;28;20051;-63
2021/08/28 09:53:44;;;;;;;4.43;1.60;;;20.60;79.40;;;;;;4208023;28;20118;-63
2021/08/28 09:56:08;;;;;;;1.70;1.60;;;20.50;79.50;;;;;;4208569;28;20113;-63
2021/08/28 09:58:32;;;;;;;4.63;1.70;;;20.50;79.70;;;;;;4193895;28;20135;-63
2021/08/28 10:00:54;;;;;;;3.75;1.67;;;20.50;79.60;;;;;;4191992;28;20037;-63
2021/08/28 10:03:18;;;;;;;2.30;1.67;;;20.50;79.70;;;;;;4191289;28;20479;-63
2021/08/28 10:05:45;;;;;;;1.55;1.27;;;20.50;80.90;;;;;;4191378;28;20509;-63
2021/08/28 10:08:09;;;;;;;3.30;1.60;;;20.50;80.10;;;;;;4191307;28;20063;-63
2021/08/28 10:10:33;;;;;;;2.83;1.42;;;20.50;80.30;;;;;;4191213;28;20463;-63
2021/08/28 10:12:56;;;;;;;1.92;1.75;;;20.50;80.10;;;;;;4191548;28;20060;-63
2021/08/28 10:15:21;;;;;;;4.55;1.85;;;20.50;80.30;;;;;;4204380;28;20131;-63
2021/08/28 10:17:44;;;;;;;2.85;1.23;;;20.50;80.50;;;;;;4207835;28;20135;-63
2021/08/28 10:20:07;;;;;;;2.20;1.60;;;20.60;80.80;;;;;;4207979;28;20430;-63
2021/08/28 10:22:35;;;;;;;2.03;1.10;;;20.60;79.90;;;;;;4208289;28;20051;-63
2021/08/28 10:25:00;;;;;;;5.10;1.63;;;20.60;79.40;;;;;;4207602;28;20517;-63
2021/08/28 10:27:23;;;;;;;2.95;1.30;;;20.60;79.50;;;;;;4207416;28;20043;-63
2021/08/28 10:29:46;;;;;;;1.42;1.30;;;20.60;79.60;;;;;;4207935;28;20166;-63
2021/08/28 10:32:09;;;;;;;3.85;1.58;;;20.60;79.70;;;;;;4202651;28;20048;-63
2021/08/28 10:34:32;;;;;;;2.38;1.17;;;20.60;80.00;;;;;;4185436;28;20052;-63
2021/08/28 10:36:54;;;;;;;3.33;1.10;;;20.60;79.60;;;;;;4202844;28;20048;-63
2021/08/28 10:39:19;;;;;;;3.08;1.40;;;20.60;79.10;;;;;;4196370;28;20752;-63
2021/08/28 10:41:41;;;;;;;2.78;1.60;;;20.50;79.10;;;;;;4202523;28;20048;-64
2021/08/28 10:44:04;;;;;;;2.85;1.65;;;20.50;79.30;;;;;;4191027;28;20802;-65
2021/08/28 10:46:30;;;;;;;3.38;1.50;;;20.60;79.70;;;;;;4189691;28;20052;-65
2021/08/28 10:48:58;;;;;;;3.58;1.30;;;20.50;79.80;;;;;;4190786;28;20051;-63
2021/08/28 10:51:25;;;;;;;3.58;1.38;;;20.50;79.30;;;;;;4200813;28;20055;-64
2021/08/28 10:53:52;;;;;;;2.97;1.45;;;20.50;78.90;;;;;;4205904;28;20055;-63
2021/08/28 10:56:16;;;;;;;2.08;1.40;;;20.50;78.80;;;;;;4207326;28;20417;-64
2021/08/28 10:58:38;;;;;;;3.30;1.35;;;20.50;78.70;;;;;;4207681;28;20048;-63
2021/08/28 11:01:00;;;;;;;3.83;1.52;;;20.60;78.60;;;;;;4203353;28;20099;-63
2021/08/28 11:03:26;;;;;;;2.85;1.10;;;20.50;78.60;;;;;;4194336;28;20052;-63
2021/08/28 11:06:21;;;;;;;2.80;1.10;;;20.50;79.10;;;;;;4194110;28;20044;-63
2021/08/28 11:08:47;;;;;;;3.15;1.23;;;20.50;78.10;;;;;;4193710;28;20055;-62
2021/08/28 11:11:21;;;;;;;2.95;1.38;;;20.50;77.50;;;;;;4194026;28;20384;-62
2021/08/28 11:13:55;;;;;;;4.55;1.63;;;20.50;78.30;;;;;;4192089;28;20056;-62
2021/08/28 11:16:53;;;;;;;2.05;1.15;;;20.60;77.90;;;;;;4176907;28;20458;-62
2021/08/28 11:19:33;;;;;;;4.15;1.60;;;20.60;78.50;;;;;;4180555;28;20040;-63
2021/08/28 11:21:55;;;;;;;2.63;1.10;;;20.60;78.50;;;;;;4206653;27;20048;-61
2021/08/28 11:24:19;;;;;;;2.95;1.20;;;20.60;77.00;;;;;;4186107;28;20299;-62
2021/08/28 11:26:43;;;;;;;2.13;1.20;;;20.60;76.80;;;;;;4176785;28;20060;-62
2021/08/28 11:29:22;;;;;;;2.50;1.10;;;20.60;77.00;;;;;;4181365;28;20052;-64
2021/08/28 11:31:46;;;;;;;3.15;1.25;;;20.60;76.80;;;;;;4160292;28;20857;-63
2021/08/28 11:34:08;;;;;;;2.70;1.15;;;20.60;77.00;;;;;;4160547;28;20050;-64
2021/08/28 11:36:31;;;;;;;1.33;0.95;;;20.70;77.20;;;;;;4177240;28;20450;-63
2021/08/28 11:38:55;;;;;;;3.13;1.42;;;20.70;77.40;;;;;;4187952;28;20048;-65
2021/08/28 11:41:22;;;;;;;2.15;1.05;;;20.70;76.80;;;;;;4200164;28;20048;-65
2021/08/28 11:43:46;;;;;;;1.10;1.00;;;20.70;77.00;;;;;;4193493;28;20059;-66
2021/08/28 11:46:11;;;;;;;1.35;1.20;;;20.70;76.90;;;;;;4193563;28;20123;-65
2021/08/28 11:48:38;;;;;;;3.30;1.30;;;20.70;76.70;;;;;;4192813;28;20056;-65
2021/08/28 11:51:01;;;;;;;1.98;1.17;;;20.80;77.00;;;;;;4193029;28;20056;-66
2021/08/28 11:53:28;;;;;;;2.95;1.30;;;20.70;76.70;;;;;;4192880;28;20052;-64
2021/08/28 11:55:49;;;;;;;3.22;1.50;;;20.80;77.00;;;;;;4193184;28;20414;-66
2021/08/28 11:58:13;;;;;;;1.85;1.13;;;20.70;76.50;;;;;;4193760;28;20048;-64
2021/08/28 12:00:37;;;;;;;3.78;1.52;;;20.70;76.20;;;;;;4193100;28;20056;-64
2021/08/28 12:03:01;;;;;;;2.72;1.10;;;20.70;76.10;;;;;;4193250;28;20045;-66
2021/08/28 12:05:24;;;;;;;3.03;1.52;;;20.70;75.80;;;;;;4193541;28;20726;-64
2021/08/28 12:07:53;;;;;;;3.13;1.20;;;20.70;76.30;;;;;;4192960;28;20586;-64
2021/08/28 12:10:15;;;;;;;1.15;1.00;;;20.70;76.30;;;;;;4193191;28;20051;-64
2021/08/28 12:12:37;;;;;;;1.85;1.13;;;20.70;75.50;;;;;;4193084;28;20471;-64
2021/08/28 12:15:05;;;;;;;1.65;1.23;;;20.70;75.60;;;;;;4192613;28;20054;-64
2021/08/28 12:17:30;;;;;;;2.22;1.15;;;20.70;75.70;;;;;;4192678;28;20048;-59
2021/08/28 12:19:52;;;;;;;1.70;1.05;;;20.70;75.30;;;;;;4193091;28;20040;-64
2021/08/28 12:22:14;;;;;;;2.20;0.98;;;20.70;75.60;;;;;;4192728;28;20052;-66
2021/08/28 12:24:39;;;;;;;1.90;1.00;;;20.70;75.70;;;;;;4193304;28;20060;-64
2021/08/28 12:27:04;;;;;;;1.98;1.15;;;20.70;75.30;;;;;;4193035;28;20060;-64
2021/08/28 12:29:28;;;;;;;2.00;1.23;;;20.60;75.50;;;;;;4192430;28;20056;-64
2021/08/28 12:32:01;;;;;;;4.07;1.00;;;20.60;75.00;;;;;;4192884;28;20049;-64
2021/08/28 12:34:26;;;;;;;1.17;0.75;;;20.60;75.20;;;;;;4192839;28;20491;-64
2021/08/28 12:36:48;;;;;;;0.80;0.80;;;20.60;75.50;;;;;;4192523;28;20491;-63
2021/08/28 12:39:10;;;;;;;2.53;1.20;;;20.60;75.90;;;;;;4192643;28;20044;-63
2021/08/28 12:41:33;;;;;;;2.00;1.30;;;20.60;75.60;;;;;;4192657;28;20226;-64
2021/08/28 12:43:55;;;;;;;1.27;1.17;;;20.60;75.90;;;;;;4192199;28;20048;-64
2021/08/28 12:46:17;;;;;;;3.83;1.00;;;20.70;76.30;;;;;;4192577;28;20764;-64
2021/08/28 12:48:39;;;;;;;2.35;1.13;;;20.60;76.20;;;;;;4192500;28;20045;-65